Automated Weather Station

Magsaysay, Infanta, Quezon


Readings

as of November 11, 2016 04:01 PM
Wind Speed
3.4 mm
Rainfall Amount
0.14 mm
Rainfall Intensity
11.3 mm
Air Temperature
mm
Wind Direction
96 mm
Air Humidity
97.7 mm

Data Source: PREDICT (Advanced Science and Technology Institute)

12 HOUR DATA

PREVIOUS DATA

From
To
DateTime Wind Speed Rain Amount Rain Intensity Air Temperature Air Pressure Wind Direction Air Humidity
October 27, 2013 07:00 PM 0 0 mm 0 20 933.5 0 93.9
October 27, 2013 06:45 PM 11.7 0 mm 0 20 933.37 23 93.5
October 27, 2013 06:30 PM 0 0 mm 0 20 933.37 0 93.2
October 27, 2013 06:15 PM 0 0.01 mm 0 19.9 933.23 0 92.3
October 27, 2013 06:00 PM 7 0 mm 0 20 932.83 62 92.2
October 27, 2013 05:45 PM 14.6 0 mm 0 20.1 932.43 3 91.4
October 27, 2013 05:30 PM 0 0 mm 0 19.9 932.43 0 92.4
October 27, 2013 05:15 PM 0 0 mm 0 19.8 932.3 0 93
October 27, 2013 05:00 PM 11.2 0 mm 0 20 932.17 70 93.3
October 27, 2013 04:45 PM 13.2 0 mm 0 20.1 932.17 33 92.9
October 27, 2013 04:30 PM 7.6 0 mm 0 20.1 932.03 43 92.6
October 27, 2013 04:15 PM 9.1 0 mm 0 20.1 931.77 102 92.5
October 27, 2013 04:00 PM 0 0 mm 0 20.2 931.77 0 91.4
October 27, 2013 03:45 PM 11.8 0 mm 0 20.3 931.63 94 88.1
October 27, 2013 03:30 PM 9 0 mm 0 20.4 931.63 49 88
October 27, 2013 03:15 PM 0 0 mm 0 20.3 931.63 0 88.6
October 27, 2013 03:00 PM 0 0 mm 0 20.4 931.63 0 88.3
October 27, 2013 02:45 PM 16.9 0 mm 0 20.3 931.5 56 87.5
October 27, 2013 02:30 PM 9.6 0 mm 0 19.9 931.63 29 88.9
October 27, 2013 02:15 PM 0 0 mm 0 19.8 931.63 0 89.8
October 27, 2013 02:00 PM 0 0 mm 0 20.2 931.63 0 87.2
October 27, 2013 01:45 PM 0 0 mm 0 20.2 931.77 0 89
October 27, 2013 01:30 PM 0 0 mm 0 20 931.9 0 89.6
October 27, 2013 01:15 PM 12.4 0 mm 0 20 931.77 76 89.2
October 27, 2013 01:00 PM 0 0 mm 0 20.1 932.03 0 88.7
October 27, 2013 12:45 PM 0 0 mm 0 19.5 932.3 0 91.2
October 27, 2013 12:30 PM 10.3 0 mm 0 19.9 932.17 20 90.1
October 27, 2013 12:15 PM 0 0.13 mm 0 19.3 932.7 0 93.6
October 27, 2013 12:00 PM 5.8 0.08 mm 2.2 19.6 932.7 355 93.7
October 27, 2013 11:45 AM 7.9 0.01 mm 0 19.8 932.97 74 93.4